createdAt,value
2019-02-16T00:02:54.557Z,15.50
2019-02-16T00:06:00.333Z,18.93
2019-02-16T00:09:06.938Z,17.23
2019-02-16T00:12:13.629Z,17.30
2019-02-16T00:15:19.472Z,14.20
2019-02-16T00:18:25.267Z,17.07
2019-02-16T00:21:31.019Z,15.07
2019-02-16T00:24:36.884Z,12.00
2019-02-16T00:27:42.750Z,12.63
2019-02-16T00:30:48.532Z,13.57
2019-02-16T00:33:54.433Z,23.73
2019-02-16T00:37:00.197Z,15.77
2019-02-16T00:40:06.227Z,17.37
2019-02-16T00:43:12.003Z,15.67
2019-02-16T00:46:17.790Z,17.87
2019-02-16T00:49:23.615Z,16.87
2019-02-16T00:52:29.402Z,18.57
2019-02-16T00:55:35.214Z,16.80
2019-02-16T00:58:40.986Z,16.00
2019-02-16T01:01:46.980Z,17.57
2019-02-16T01:04:52.778Z,16.03
2019-02-16T01:07:58.525Z,16.57
2019-02-16T01:11:04.395Z,19.47
2019-02-16T01:14:10.164Z,20.73
2019-02-16T01:17:16.009Z,25.33
2019-02-16T01:20:21.881Z,24.50
2019-02-16T01:23:27.669Z,27.83
2019-02-16T01:26:33.442Z,23.20
2019-02-16T01:29:39.240Z,27.73
2019-02-16T01:32:44.998Z,28.83
2019-02-16T01:35:50.753Z,31.00
2019-02-16T01:38:56.505Z,31.50
2019-02-16T01:42:02.286Z,29.97
2019-02-16T01:45:09.661Z,34.37
2019-02-16T01:48:15.474Z,34.17
2019-02-16T01:51:21.269Z,30.70
2019-02-16T01:54:27.070Z,34.07
2019-02-16T01:57:32.812Z,38.17
2019-02-16T02:00:38.597Z,32.00
2019-02-16T02:03:44.370Z,34.17
2019-02-16T02:06:50.208Z,33.47
2019-02-16T02:09:55.977Z,36.20
2019-02-16T02:13:01.802Z,32.83
2019-02-16T02:16:07.592Z,31.80
2019-02-16T02:19:13.406Z,31.63
2019-02-16T02:22:19.171Z,26.50
2019-02-16T02:25:25.613Z,27.63
2019-02-16T02:28:31.370Z,27.30
2019-02-16T02:31:37.682Z,24.50
2019-02-16T02:34:43.474Z,26.97
2019-02-16T02:37:49.257Z,26.07
2019-02-16T02:40:55.040Z,25.23
2019-02-16T02:44:00.814Z,23.03
2019-02-16T02:47:06.671Z,25.60
2019-02-16T02:50:12.426Z,19.00
2019-02-16T02:53:18.219Z,20.40
2019-02-16T02:56:23.972Z,21.37
2019-02-16T02:59:29.768Z,19.40
2019-02-16T03:02:35.637Z,15.63
2019-02-16T03:05:41.459Z,14.33
2019-02-16T03:08:47.337Z,15.60
2019-02-16T03:11:53.163Z,13.23
2019-02-16T03:14:58.925Z,14.13
2019-02-16T03:18:04.795Z,17.83
2019-02-16T03:21:10.584Z,12.37
2019-02-16T03:24:16.369Z,12.87
2019-02-16T03:28:12.173Z,11.60
2019-02-16T03:32:00.754Z,9.90
2019-02-16T03:35:39.341Z,11.73
2019-02-16T03:39:17.732Z,10.17
2019-02-16T03:42:23.501Z,9.63
2019-02-16T03:45:29.288Z,11.00
2019-02-16T03:48:35.089Z,11.33
2019-02-16T03:51:40.895Z,14.63
2019-02-16T03:54:46.676Z,13.70
2019-02-16T03:57:52.437Z,16.10
2019-02-16T04:00:58.196Z,12.90
2019-02-16T04:04:04.039Z,11.87
2019-02-16T04:07:09.829Z,11.70
2019-02-16T04:10:15.579Z,11.83
2019-02-16T04:13:21.351Z,9.17
2019-02-16T04:16:27.130Z,13.23
2019-02-16T04:19:32.897Z,12.23
2019-02-16T04:22:38.727Z,13.63
2019-02-16T04:25:44.476Z,12.80
2019-02-16T04:28:50.364Z,13.60
2019-02-16T04:31:56.131Z,16.23
2019-02-16T04:35:01.911Z,13.77
2019-02-16T04:38:07.668Z,15.40
2019-02-16T04:41:13.542Z,13.50
2019-02-16T04:44:20.442Z,13.60
2019-02-16T04:47:26.203Z,16.00
2019-02-16T04:50:32.005Z,19.47
2019-02-16T04:53:37.853Z,16.03
2019-02-16T04:56:43.740Z,15.83
2019-02-16T04:59:49.550Z,16.17
2019-02-16T05:02:55.312Z,18.50
2019-02-16T05:06:01.111Z,15.60
2019-02-16T05:09:07.844Z,17.10
2019-02-16T05:12:13.633Z,17.40
2019-02-16T05:15:19.492Z,17.07
2019-02-16T05:18:25.255Z,16.33
2019-02-16T05:21:31.048Z,16.60
2019-02-16T05:24:36.888Z,18.93
2019-02-16T05:27:42.645Z,14.87
2019-02-16T05:30:48.392Z,14.37
2019-02-16T05:33:54.163Z,16.70
2019-02-16T05:36:59.934Z,22.43
2019-02-16T05:40:06.621Z,14.03
2019-02-16T05:43:12.389Z,14.47
2019-02-16T05:46:18.204Z,13.83
2019-02-16T05:49:23.997Z,15.23
2019-02-16T05:52:29.757Z,21.07
2019-02-16T05:55:35.589Z,20.97
2019-02-16T05:58:41.327Z,21.80
2019-02-16T06:01:53.530Z,17.53
2019-02-16T06:04:54.602Z,16.43
2019-02-16T06:08:00.464Z,18.80
2019-02-16T06:11:06.361Z,18.20
2019-02-16T06:14:12.132Z,16.10
2019-02-16T06:17:17.909Z,16.27
2019-02-16T06:20:23.749Z,12.80
2019-02-16T06:23:29.548Z,12.90
2019-02-16T06:26:35.366Z,9.70
2019-02-16T06:29:41.164Z,10.07
2019-02-16T06:32:46.953Z,11.90
2019-02-16T06:36:06.638Z,9.97
2019-02-16T06:39:12.439Z,10.83
2019-02-16T06:42:18.237Z,14.37
2019-02-16T06:45:24.006Z,7.63
2019-02-16T06:48:29.787Z,15.40
2019-02-16T06:51:35.566Z,14.90
2019-02-16T06:54:41.429Z,10.17
2019-02-16T06:57:49.840Z,11.93
2019-02-16T07:00:55.607Z,22.03
2019-02-16T07:04:01.384Z,9.80
2019-02-16T07:07:07.735Z,10.07
2019-02-16T07:10:13.552Z,14.70
2019-02-16T07:13:19.329Z,17.27
2019-02-16T07:16:49.771Z,12.53
2019-02-16T07:19:57.772Z,17.83
2019-02-16T07:23:03.557Z,10.77
2019-02-16T07:26:09.313Z,12.13
2019-02-16T07:29:15.151Z,11.63
2019-02-16T07:32:20.975Z,12.70
2019-02-16T07:35:26.735Z,9.47
2019-02-16T07:38:32.541Z,9.57
2019-02-16T07:41:38.351Z,11.07
2019-02-16T07:45:08.812Z,11.93
2019-02-16T07:48:27.772Z,10.93
2019-02-16T07:51:44.708Z,10.50
2019-02-16T07:55:09.324Z,9.70
2019-02-16T07:58:34.022Z,14.33
2019-02-16T08:02:05.560Z,11.07
2019-02-16T08:05:36.197Z,9.10
2019-02-16T08:08:56.034Z,12.40
2019-02-16T08:12:23.948Z,12.03
2019-02-16T08:15:47.170Z,13.50
2019-02-16T08:18:59.429Z,16.40
2019-02-16T08:22:24.076Z,24.73
2019-02-16T08:25:51.535Z,19.20
2019-02-16T08:29:11.285Z,13.97
2019-02-16T08:32:23.560Z,12.43
2019-02-16T08:35:56.994Z,16.00
2019-02-16T08:39:08.822Z,15.73
2019-02-16T08:42:36.506Z,12.27
2019-02-16T08:45:51.731Z,15.67
2019-02-16T08:49:31.812Z,53.10
2019-02-16T08:52:55.209Z,104.47
2019-02-16T08:56:38.246Z,25.70
2019-02-16T09:00:06.202Z,18.83
2019-02-16T09:03:29.341Z,15.33
2019-02-16T09:06:52.642Z,16.80
2019-02-16T09:10:15.940Z,15.13
2019-02-16T09:13:46.723Z,20.33
2019-02-16T09:17:14.400Z,14.13
2019-02-16T09:20:38.971Z,15.43
2019-02-16T09:24:12.606Z,11.47
2019-02-16T09:27:43.058Z,14.87
2019-02-16T09:31:07.662Z,12.87
2019-02-16T09:34:31.276Z,9.77
2019-02-16T09:38:05.264Z,12.23
2019-02-16T09:41:23.583Z,12.43
2019-02-16T09:44:54.067Z,9.20
2019-02-16T09:48:24.844Z,10.17
2019-02-16T09:51:48.119Z,11.67
2019-02-16T09:55:18.613Z,13.87
2019-02-16T09:58:34.543Z,14.03
2019-02-16T10:02:08.252Z,10.83
2019-02-16T10:05:31.662Z,9.63
2019-02-16T10:08:50.513Z,14.17
2019-02-16T10:12:08.474Z,14.80
2019-02-16T10:15:33.190Z,14.53
2019-02-16T10:18:46.512Z,11.97
2019-02-16T10:22:04.620Z,10.90
2019-02-16T10:25:39.360Z,12.30
2019-02-16T10:29:06.803Z,15.90
2019-02-16T10:32:37.196Z,10.57
2019-02-16T10:36:08.067Z,12.17
2019-02-16T10:39:41.772Z,9.53
2019-02-16T10:43:20.293Z,10.17
2019-02-16T10:46:50.798Z,8.47
2019-02-16T10:50:18.492Z,35.37
2019-02-16T10:54:01.286Z,14.63
2019-02-16T10:57:29.047Z,9.13
2019-02-16T11:01:00.305Z,7.73
2019-02-16T11:04:38.187Z,10.10
2019-02-16T11:07:56.177Z,11.13
2019-02-16T11:11:11.758Z,8.50
2019-02-16T11:14:30.734Z,7.50
2019-02-16T11:17:55.847Z,9.53
2019-02-16T11:21:32.981Z,8.83
2019-02-16T11:25:09.690Z,10.50
2019-02-16T11:28:46.602Z,11.27
2019-02-16T11:32:09.885Z,12.77
2019-02-16T11:35:43.483Z,14.30
2019-02-16T11:39:11.046Z,9.20
2019-02-16T11:42:23.356Z,9.50
2019-02-16T11:46:03.152Z,9.20
2019-02-16T11:49:25.161Z,9.53
2019-02-16T11:52:56.160Z,9.33
2019-02-16T11:56:11.874Z,7.90
2019-02-16T11:59:36.527Z,10.27
2019-02-16T12:03:19.162Z,8.87
2019-02-16T12:06:33.751Z,30.87
2019-02-16T12:10:01.488Z,8.17
2019-02-16T12:13:32.192Z,10.97
2019-02-16T12:16:55.474Z,13.00
2019-02-16T12:20:18.724Z,11.17
2019-02-16T12:23:33.559Z,9.50
2019-02-16T12:26:58.332Z,10.63
2019-02-16T12:30:26.263Z,10.43
2019-02-16T12:33:52.717Z,12.63
2019-02-16T12:37:16.185Z,13.67
2019-02-16T12:40:43.739Z,9.17
2019-02-16T12:44:02.401Z,11.20
2019-02-16T12:47:33.073Z,10.53
2019-02-16T12:50:59.505Z,10.77
2019-02-16T12:54:22.563Z,10.67
2019-02-16T12:57:50.114Z,9.00
2019-02-16T13:01:20.523Z,10.90
2019-02-16T13:04:45.120Z,15.83
2019-02-16T13:07:58.477Z,13.63
2019-02-16T13:11:26.279Z,10.53
2019-02-16T13:15:00.322Z,12.67
2019-02-16T13:18:30.904Z,8.80
2019-02-16T13:21:40.847Z,16.07
2019-02-16T13:24:53.886Z,11.10
2019-02-16T13:28:24.353Z,12.10
2019-02-16T13:31:40.446Z,12.70
2019-02-16T13:35:10.863Z,10.97
2019-02-16T13:38:30.317Z,10.90
2019-02-16T13:41:46.443Z,10.83
2019-02-16T13:45:07.545Z,13.07
2019-02-16T13:48:22.100Z,10.93
2019-02-16T13:51:37.005Z,9.77
2019-02-16T13:54:56.862Z,19.63
2019-02-16T13:58:20.129Z,8.83
2019-02-16T14:01:51.051Z,8.80
2019-02-16T14:05:12.176Z,8.17
2019-02-16T14:08:36.976Z,8.97
2019-02-16T14:12:07.448Z,9.33
2019-02-16T14:15:29.591Z,8.17
2019-02-16T14:18:35.454Z,8.13
2019-02-16T14:21:41.224Z,12.77
2019-02-16T14:24:50.283Z,10.77
2019-02-16T14:27:56.078Z,11.97
2019-02-16T14:31:01.870Z,11.00
2019-02-16T14:34:07.637Z,12.87
2019-02-16T14:37:41.704Z,9.80
2019-02-16T14:40:47.511Z,10.37
2019-02-16T14:43:53.345Z,15.13
2019-02-16T14:46:59.335Z,35.60
2019-02-16T14:50:05.527Z,60.47
2019-02-16T14:53:11.479Z,18.93
2019-02-16T14:56:17.262Z,21.30
2019-02-16T14:59:23.182Z,16.63
2019-02-16T15:02:28.981Z,30.30
2019-02-16T15:05:34.784Z,24.90
2019-02-16T15:08:41.658Z,26.97
2019-02-16T15:11:47.627Z,22.23
2019-02-16T15:14:53.583Z,16.40
2019-02-16T15:17:59.423Z,17.17
2019-02-16T15:21:05.241Z,16.87
2019-02-16T15:24:11.039Z,18.60
2019-02-16T15:27:16.867Z,16.67
2019-02-16T15:30:22.817Z,17.17
2019-02-16T15:33:28.617Z,23.13
2019-02-16T15:36:34.450Z,18.17
2019-02-16T15:39:40.254Z,19.97
2019-02-16T15:42:46.043Z,21.83
2019-02-16T15:45:51.842Z,20.33
2019-02-16T15:48:57.795Z,21.23
2019-02-16T15:52:03.531Z,23.87
2019-02-16T15:55:10.597Z,21.60
2019-02-16T15:58:16.385Z,26.93
2019-02-16T16:01:22.234Z,27.37
2019-02-16T16:04:28.094Z,29.43
2019-02-16T16:07:33.901Z,40.07
2019-02-16T16:10:45.380Z,37.50
2019-02-16T16:14:00.455Z,29.47
2019-02-16T16:17:24.231Z,36.10
2019-02-16T16:20:51.804Z,45.97
2019-02-16T16:24:22.522Z,39.83
2019-02-16T16:27:44.073Z,42.10
2019-02-16T16:31:01.737Z,41.43
2019-02-16T16:34:17.000Z,42.07
2019-02-16T16:37:44.439Z,37.07
2019-02-16T16:41:07.720Z,38.17
2019-02-16T16:44:29.857Z,41.20
2019-02-16T16:48:03.607Z,41.30
2019-02-16T16:51:17.548Z,38.90
2019-02-16T16:54:42.128Z,52.10
2019-02-16T16:58:05.798Z,49.37
2019-02-16T17:01:29.422Z,42.23
2019-02-16T17:04:54.149Z,57.87
2019-02-16T17:08:19.483Z,83.20
2019-02-16T17:11:44.140Z,106.30
2019-02-16T17:15:11.820Z,89.40
2019-02-16T17:18:30.415Z,76.97
2019-02-16T17:21:53.780Z,59.03
2019-02-16T17:25:24.185Z,60.67
2019-02-16T17:28:41.760Z,70.33
2019-02-16T17:32:07.086Z,75.07
2019-02-16T17:35:21.422Z,76.70
2019-02-16T17:38:33.231Z,83.13
2019-02-16T17:41:55.674Z,197.63
2019-02-16T17:45:20.290Z,264.50
2019-02-16T17:48:43.524Z,240.43
2019-02-16T17:52:10.912Z,201.70
2019-02-16T17:55:34.273Z,188.80
2019-02-16T17:58:59.014Z,145.47
2019-02-16T18:02:15.572Z,98.60
2019-02-16T18:05:39.104Z,98.60
2019-02-16T18:09:02.229Z,81.97
2019-02-16T18:12:37.825Z,74.63
2019-02-16T18:15:58.468Z,77.83
2019-02-16T18:19:09.570Z,78.73
2019-02-16T18:22:22.363Z,77.67
2019-02-16T18:25:44.361Z,81.90
2019-02-16T18:29:14.909Z,94.53
2019-02-16T18:32:38.934Z,91.27
2019-02-16T18:36:00.791Z,131.33
2019-02-16T18:39:30.227Z,128.23
2019-02-16T18:42:53.857Z,109.20
2019-02-16T18:46:21.358Z,130.67
2019-02-16T18:49:44.946Z,124.90
2019-02-16T18:53:21.656Z,120.83
2019-02-16T18:56:55.361Z,102.60
2019-02-16T19:00:25.803Z,104.00
2019-02-16T19:03:50.448Z,74.93
2019-02-16T19:07:01.705Z,85.97
2019-02-16T19:10:38.696Z,69.77
2019-02-16T19:13:55.313Z,62.37
2019-02-16T19:17:29.522Z,50.47
2019-02-16T19:20:49.009Z,57.40
2019-02-16T19:24:01.152Z,58.80
2019-02-16T19:27:25.874Z,58.43
2019-02-16T19:30:45.720Z,63.07
2019-02-16T19:34:13.414Z,58.63
2019-02-16T19:37:34.101Z,60.47
2019-02-16T19:40:46.497Z,58.13
2019-02-16T19:44:14.976Z,57.70
2019-02-16T19:47:32.125Z,56.73
2019-02-16T19:51:06.037Z,72.37
2019-02-16T19:54:30.661Z,69.20
2019-02-16T19:57:53.767Z,65.10
2019-02-16T20:01:24.612Z,57.80
2019-02-16T20:04:50.160Z,72.80
2019-02-16T20:08:20.848Z,68.53
2019-02-16T20:11:48.716Z,69.37
2019-02-16T20:15:04.365Z,66.07
2019-02-16T20:18:18.090Z,72.27
2019-02-16T20:22:01.316Z,75.77
2019-02-16T20:25:30.063Z,125.90
2019-02-16T20:28:57.461Z,123.00
2019-02-16T20:32:18.793Z,125.63
2019-02-16T20:35:49.739Z,125.17
2019-02-16T20:39:20.248Z,116.40
2019-02-16T20:42:36.435Z,86.47
2019-02-16T20:45:55.363Z,79.23
2019-02-16T20:49:20.085Z,75.07
2019-02-16T20:52:48.024Z,65.03
2019-02-16T20:56:12.639Z,68.37
2019-02-16T20:59:38.117Z,71.00
2019-02-16T21:03:05.515Z,71.77
2019-02-16T21:06:30.171Z,70.03
2019-02-16T21:10:13.338Z,65.50
2019-02-16T21:13:41.028Z,67.50
2019-02-16T21:17:23.853Z,64.60
2019-02-16T21:20:47.308Z,70.20
2019-02-16T21:24:14.931Z,62.50
2019-02-16T21:27:57.721Z,58.87
2019-02-16T21:31:08.496Z,127.27
2019-02-16T21:34:31.730Z,82.67
2019-02-16T21:37:59.121Z,87.10
2019-02-16T21:41:29.860Z,74.47
2019-02-16T21:44:44.282Z,75.27
2019-02-16T21:48:18.338Z,72.83
2019-02-16T21:51:41.785Z,68.17
2019-02-16T21:54:59.589Z,69.80
2019-02-16T21:58:11.352Z,68.37
2019-02-16T22:01:30.413Z,74.07
2019-02-16T22:04:53.906Z,65.37
2019-02-16T22:08:24.337Z,70.90
2019-02-16T22:11:36.849Z,68.00
2019-02-16T22:14:42.659Z,66.90
2019-02-16T22:17:49.563Z,63.00
2019-02-16T22:20:55.358Z,110.77
2019-02-16T22:24:01.281Z,79.00
2019-02-16T22:27:07.082Z,69.77
2019-02-16T22:30:13.113Z,70.20
2019-02-16T22:33:18.901Z,70.57
2019-02-16T22:36:24.687Z,66.33
2019-02-16T22:39:30.467Z,130.47
2019-02-16T22:42:36.279Z,80.63
2019-02-16T22:45:42.090Z,68.67
2019-02-16T22:48:47.892Z,63.63
2019-02-16T22:51:53.803Z,181.57
2019-02-16T22:55:00.759Z,42.20
2019-02-16T22:58:06.582Z,38.90
2019-02-16T23:01:12.703Z,37.37
2019-02-16T23:04:18.825Z,37.70
2019-02-16T23:07:25.760Z,37.73
2019-02-16T23:10:31.949Z,35.90
2019-02-16T23:13:37.746Z,39.67
2019-02-16T23:16:43.770Z,54.80
2019-02-16T23:19:49.548Z,41.80
2019-02-16T23:22:55.435Z,39.97
2019-02-16T23:26:01.330Z,32.50
2019-02-16T23:29:07.268Z,42.27
2019-02-16T23:32:13.240Z,34.07
2019-02-16T23:35:19.018Z,48.50
2019-02-16T23:38:24.799Z,25.03
2019-02-16T23:41:30.569Z,29.13
2019-02-16T23:44:36.414Z,24.83
2019-02-16T23:47:42.206Z,23.43
2019-02-16T23:50:47.996Z,23.97
2019-02-16T23:53:53.761Z,27.10
2019-02-16T23:56:59.558Z,34.10
